createdAt,value
2022-10-13T00:00:10.628Z,93.76
2022-10-13T00:01:12.045Z,93.86
2022-10-13T00:02:11.777Z,93.76
2022-10-13T00:03:12.058Z,93.76
2022-10-13T00:04:30.404Z,93.86
2022-10-13T00:05:11.686Z,93.76
2022-10-13T00:06:12.011Z,93.76
2022-10-13T00:07:11.853Z,93.92
2022-10-13T00:08:11.686Z,93.92
2022-10-13T00:09:12.057Z,94.02
2022-10-13T00:10:10.848Z,94.02
2022-10-13T00:11:11.766Z,93.82
2022-10-13T00:12:11.607Z,93.71
2022-10-13T00:13:11.912Z,93.71
2022-10-13T00:14:30.260Z,93.71
2022-10-13T00:15:10.694Z,93.71
2022-10-13T00:16:10.856Z,93.92
2022-10-13T00:17:11.619Z,93.92
2022-10-13T00:18:11.922Z,93.92
2022-10-13T00:19:15.066Z,93.82
2022-10-13T00:20:11.602Z,93.92
2022-10-13T00:21:11.964Z,93.92
2022-10-13T00:22:10.855Z,93.92
2022-10-13T00:23:11.559Z,94.02
2022-10-13T00:24:30.388Z,94.02
2022-10-13T00:25:11.615Z,93.92
2022-10-13T00:26:11.496Z,94.02
2022-10-13T00:27:11.781Z,94.12
2022-10-13T00:28:10.897Z,94.23
2022-10-13T00:29:11.497Z,94.12
2022-10-13T00:30:11.887Z,94.08
2022-10-13T00:31:11.637Z,93.98
2022-10-13T00:32:10.653Z,94.08
2022-10-13T00:33:11.365Z,94.08
2022-10-13T00:34:30.087Z,93.98
2022-10-13T00:35:10.866Z,93.98
2022-10-13T00:36:11.696Z,93.77
2022-10-13T00:37:11.520Z,93.88
2022-10-13T00:38:10.847Z,93.88
2022-10-13T00:39:10.865Z,93.98
2022-10-13T00:40:11.490Z,94.08
2022-10-13T00:41:11.331Z,93.98
2022-10-13T00:42:11.164Z,93.88
2022-10-13T00:43:11.038Z,93.88
2022-10-13T00:44:29.870Z,93.88
2022-10-13T00:45:11.766Z,93.98
2022-10-13T00:46:11.571Z,93.88
2022-10-13T00:47:11.365Z,94.08
2022-10-13T00:48:11.170Z,94.08
2022-10-13T00:49:11.472Z,94.08
2022-10-13T00:50:10.368Z,94.08
2022-10-13T00:51:11.204Z,94.18
2022-10-13T00:52:11.544Z,94.08
2022-10-13T00:53:11.398Z,94.08
2022-10-13T00:54:29.764Z,94.18
2022-10-13T00:55:11.015Z,94.08
2022-10-13T00:56:10.365Z,94.18
2022-10-13T00:57:11.200Z,94.08
2022-10-13T00:58:11.056Z,93.98
2022-10-13T00:59:10.535Z,93.98
2022-10-13T01:00:10.705Z,94.08
2022-10-13T01:01:10.457Z,94.18
2022-10-13T01:02:11.417Z,94.08
2022-10-13T01:03:10.700Z,93.93
2022-10-13T01:04:30.035Z,93.93
2022-10-13T01:05:11.230Z,93.93
2022-10-13T01:06:11.061Z,93.93
2022-10-13T01:07:10.384Z,93.93
2022-10-13T01:08:11.268Z,93.84
2022-10-13T01:09:10.609Z,93.73
2022-10-13T01:10:10.916Z,93.73
2022-10-13T01:11:10.431Z,93.63
2022-10-13T01:12:10.594Z,93.63
2022-10-13T01:13:10.379Z,93.52
2022-10-13T01:14:29.726Z,93.63
2022-10-13T01:15:10.357Z,93.52
2022-10-13T01:16:11.224Z,93.73
2022-10-13T01:17:11.040Z,93.73
2022-10-13T01:18:10.341Z,93.63
2022-10-13T01:19:10.386Z,93.52
2022-10-13T01:20:10.990Z,93.43
2022-10-13T01:21:11.292Z,93.52
2022-10-13T01:22:11.153Z,93.52
2022-10-13T01:23:10.973Z,93.63
2022-10-13T01:24:29.805Z,93.52
2022-10-13T01:25:11.031Z,93.52
2022-10-13T01:26:10.869Z,93.32
2022-10-13T01:27:11.226Z,93.32
2022-10-13T01:28:10.192Z,93.22
2022-10-13T01:29:10.860Z,93.12
2022-10-13T01:30:10.419Z,93.02
2022-10-13T01:31:11.050Z,92.81
2022-10-13T01:32:10.866Z,93.02
2022-10-13T01:33:10.735Z,93.22
2022-10-13T01:34:29.652Z,93.12
2022-10-13T01:35:09.923Z,93.22
2022-10-13T01:36:09.923Z,93.43
2022-10-13T01:37:10.999Z,93.43
2022-10-13T01:38:10.778Z,93.43
2022-10-13T01:39:11.141Z,93.43
2022-10-13T01:40:10.975Z,93.43
2022-10-13T01:41:10.985Z,93.43
2022-10-13T01:42:11.151Z,93.63
2022-10-13T01:43:10.922Z,93.63
2022-10-13T01:44:31.276Z,93.59
2022-10-13T01:45:11.047Z,93.48
2022-10-13T01:46:10.399Z,93.38
2022-10-13T01:47:10.733Z,93.38
2022-10-13T01:48:09.918Z,93.18
2022-10-13T01:49:10.937Z,92.87
2022-10-13T01:50:10.724Z,93.07
2022-10-13T01:51:09.719Z,92.97
2022-10-13T01:52:10.852Z,93.07
2022-10-13T01:53:10.712Z,93.07
2022-10-13T01:54:29.526Z,93.07
2022-10-13T01:55:10.819Z,93.07
2022-10-13T01:56:10.641Z,92.97
2022-10-13T01:57:10.022Z,92.97
2022-10-13T01:58:10.836Z,92.87
2022-10-13T01:59:10.719Z,92.77
2022-10-13T02:00:09.931Z,92.77
2022-10-13T02:01:10.942Z,92.77
2022-10-13T02:02:10.718Z,92.87
2022-10-13T02:03:10.046Z,93.07
2022-10-13T02:04:29.373Z,93.07
2022-10-13T02:05:10.179Z,92.97
2022-10-13T02:06:09.959Z,93.07
2022-10-13T02:07:10.785Z,92.97
2022-10-13T02:08:10.124Z,92.97
2022-10-13T02:09:10.437Z,93.07
2022-10-13T02:10:10.778Z,93.18
2022-10-13T02:11:10.107Z,93.07
2022-10-13T02:12:09.910Z,93.07
2022-10-13T02:13:09.949Z,93.07
2022-10-13T02:14:29.313Z,92.97
2022-10-13T02:15:09.773Z,92.97
2022-10-13T02:16:09.006Z,93.07
2022-10-13T02:17:09.830Z,93.07
2022-10-13T02:18:09.423Z,93.07
2022-10-13T02:19:10.058Z,92.87
2022-10-13T02:20:09.009Z,92.77
2022-10-13T02:21:09.141Z,92.77
2022-10-13T02:22:10.662Z,92.67
2022-10-13T02:23:10.054Z,92.57
2022-10-13T02:24:28.898Z,92.46
2022-10-13T02:25:10.167Z,92.36
2022-10-13T02:26:09.706Z,92.26
2022-10-13T02:27:10.412Z,92.57
2022-10-13T02:28:09.749Z,92.67
2022-10-13T02:29:09.109Z,92.67
2022-10-13T02:30:08.890Z,92.57
2022-10-13T02:31:08.694Z,92.57
2022-10-13T02:32:09.011Z,92.77
2022-10-13T02:33:08.811Z,92.77
2022-10-13T02:34:29.119Z,92.77
2022-10-13T02:35:09.854Z,92.67
2022-10-13T02:36:08.696Z,92.77
2022-10-13T02:37:14.328Z,92.57
2022-10-13T02:38:08.605Z,92.77
2022-10-13T02:39:08.888Z,92.67
2022-10-13T02:40:08.718Z,92.46
2022-10-13T02:41:08.965Z,92.26
2022-10-13T02:42:15.043Z,92.57
2022-10-13T02:43:08.870Z,92.57
2022-10-13T02:44:28.619Z,92.57
2022-10-13T02:45:08.871Z,92.57
2022-10-13T02:46:08.605Z,92.46
2022-10-13T02:47:15.146Z,92.36
2022-10-13T02:48:08.469Z,92.46
2022-10-13T02:49:08.731Z,92.67
2022-10-13T02:50:08.508Z,92.67
2022-10-13T02:51:08.803Z,92.77
2022-10-13T02:52:14.790Z,92.67
2022-10-13T02:53:08.594Z,92.57
2022-10-13T02:54:28.867Z,92.36
2022-10-13T02:55:08.615Z,92.26
2022-10-13T02:56:08.386Z,92.16
2022-10-13T02:57:08.622Z,92.16
2022-10-13T02:58:08.385Z,92.26
2022-10-13T02:59:08.665Z,92.26
2022-10-13T03:00:08.438Z,92.05
2022-10-13T03:01:08.733Z,92.36
2022-10-13T03:02:08.464Z,92.57
2022-10-13T03:03:08.804Z,92.67
2022-10-13T03:04:28.536Z,92.57
2022-10-13T03:05:08.292Z,92.46
2022-10-13T03:06:08.581Z,92.36
2022-10-13T03:07:14.604Z,92.46
2022-10-13T03:08:08.420Z,92.67
2022-10-13T03:09:08.673Z,92.77
2022-10-13T03:10:08.420Z,92.57
2022-10-13T03:11:08.645Z,92.57
2022-10-13T03:12:13.706Z,92.57
2022-10-13T03:13:08.461Z,92.77
2022-10-13T03:14:28.221Z,92.77
2022-10-13T03:15:08.453Z,92.77
2022-10-13T03:16:08.204Z,92.77
2022-10-13T03:17:14.764Z,92.77
2022-10-13T03:18:08.565Z,92.77
2022-10-13T03:19:08.324Z,92.87
2022-10-13T03:20:08.594Z,92.87
2022-10-13T03:21:08.315Z,92.87
2022-10-13T03:22:14.833Z,92.87
2022-10-13T03:23:08.116Z,92.77
2022-10-13T03:24:28.420Z,92.87
2022-10-13T03:25:08.153Z,92.87
2022-10-13T03:26:08.437Z,92.87
2022-10-13T03:27:14.523Z,92.77
2022-10-13T03:28:08.346Z,92.77
2022-10-13T03:29:08.093Z,92.72
2022-10-13T03:30:08.372Z,92.77
2022-10-13T03:31:08.147Z,92.67
2022-10-13T03:32:14.684Z,92.46
2022-10-13T03:33:08.441Z,92.46
2022-10-13T03:34:28.255Z,92.36
2022-10-13T03:35:07.984Z,92.46
2022-10-13T03:36:08.311Z,92.67
2022-10-13T03:37:14.275Z,92.67
2022-10-13T03:38:08.098Z,92.67
2022-10-13T03:39:08.370Z,92.87
2022-10-13T03:40:08.108Z,92.77
2022-10-13T03:41:07.927Z,92.67
2022-10-13T03:42:08.187Z,92.77
2022-10-13T03:43:07.946Z,92.67
2022-10-13T03:44:28.291Z,92.67
2022-10-13T03:45:07.951Z,92.77
2022-10-13T03:46:08.254Z,92.67
2022-10-13T03:47:08.054Z,92.77
2022-10-13T03:48:08.334Z,92.87
2022-10-13T03:49:08.069Z,92.77
2022-10-13T03:50:08.326Z,92.67
2022-10-13T03:51:08.093Z,92.57
2022-10-13T03:52:07.847Z,92.67
2022-10-13T03:53:08.097Z,92.87
2022-10-13T03:54:27.912Z,92.87
2022-10-13T03:55:08.136Z,92.87
2022-10-13T03:56:07.938Z,92.97
2022-10-13T03:57:14.456Z,92.97
2022-10-13T03:58:07.776Z,92.97
2022-10-13T03:59:08.028Z,93.07
2022-10-13T04:00:07.789Z,92.97
2022-10-13T04:01:08.037Z,93.07
2022-10-13T04:02:13.164Z,93.07
2022-10-13T04:03:07.913Z,93.07
2022-10-13T04:04:28.189Z,92.97
2022-10-13T04:05:07.956Z,93.07
2022-10-13T04:06:07.704Z,93.07
2022-10-13T04:07:14.220Z,93.07
2022-10-13T04:08:08.019Z,92.97
2022-10-13T04:09:07.785Z,93.07
2022-10-13T04:10:11.358Z,92.97
2022-10-13T04:11:07.804Z,93.07
2022-10-13T04:12:18.384Z,92.97
2022-10-13T04:13:08.682Z,92.87
2022-10-13T04:14:27.966Z,92.77
2022-10-13T04:15:07.744Z,92.77
2022-10-13T04:16:08.017Z,92.97
2022-10-13T04:17:13.128Z,92.97
2022-10-13T04:18:07.895Z,92.97
2022-10-13T04:19:07.664Z,92.87
2022-10-13T04:20:07.924Z,92.81
2022-10-13T04:21:07.733Z,92.81
2022-10-13T04:22:07.485Z,92.81
2022-10-13T04:23:07.732Z,92.91
2022-10-13T04:24:27.476Z,92.91
2022-10-13T04:25:07.723Z,92.91
2022-10-13T04:26:07.493Z,92.91
2022-10-13T04:27:14.007Z,93.12
2022-10-13T04:28:07.805Z,93.12
2022-10-13T04:29:07.570Z,92.91
2022-10-13T04:30:07.839Z,92.91
2022-10-13T04:31:07.593Z,93.02
2022-10-13T04:32:13.174Z,93.22
2022-10-13T04:33:07.407Z,93.43
2022-10-13T04:34:27.652Z,93.43
2022-10-13T04:35:08.223Z,93.63
2022-10-13T04:36:07.638Z,93.73
2022-10-13T04:37:07.397Z,93.84
2022-10-13T04:38:07.652Z,93.84
2022-10-13T04:39:07.428Z,93.73
2022-10-13T04:40:08.602Z,93.59
2022-10-13T04:41:07.406Z,93.59
2022-10-13T04:42:07.684Z,93.48
2022-10-13T04:43:07.666Z,93.48
2022-10-13T04:44:27.490Z,93.48
2022-10-13T04:45:07.227Z,93.48
2022-10-13T04:46:07.502Z,93.48
2022-10-13T04:47:07.271Z,93.38
2022-10-13T04:48:07.523Z,93.38
2022-10-13T04:49:07.283Z,93.48
2022-10-13T04:50:07.570Z,93.48
2022-10-13T04:51:07.384Z,93.48
2022-10-13T04:52:07.625Z,93.48
2022-10-13T04:53:07.430Z,93.38
2022-10-13T04:54:27.717Z,93.38
2022-10-13T04:55:07.465Z,93.38
2022-10-13T04:56:07.285Z,93.38
2022-10-13T04:57:07.526Z,93.28
2022-10-13T04:58:07.272Z,93.28
2022-10-13T04:59:07.540Z,93.18
2022-10-13T05:00:07.295Z,93.07
2022-10-13T05:01:07.649Z,93.18
2022-10-13T05:02:07.453Z,93.28
2022-10-13T05:03:07.101Z,93.28
2022-10-13T05:04:27.378Z,93.38
2022-10-13T05:05:07.130Z,93.38
2022-10-13T05:06:07.399Z,93.38
2022-10-13T05:07:17.421Z,93.48
2022-10-13T05:08:08.400Z,93.63
2022-10-13T05:09:07.179Z,93.48
2022-10-13T05:10:07.508Z,93.52
2022-10-13T05:11:07.267Z,93.43
2022-10-13T05:12:07.014Z,93.32
2022-10-13T05:13:07.255Z,93.22
2022-10-13T05:14:27.059Z,93.52
2022-10-13T05:15:07.323Z,93.43
2022-10-13T05:16:07.090Z,93.32
2022-10-13T05:17:07.315Z,93.52
2022-10-13T05:18:07.068Z,93.73
2022-10-13T05:19:07.338Z,93.84
2022-10-13T05:20:07.182Z,93.93
2022-10-13T05:21:07.389Z,93.93
2022-10-13T05:22:07.187Z,93.93
2022-10-13T05:23:06.921Z,93.89
2022-10-13T05:24:27.227Z,93.79
2022-10-13T05:25:06.978Z,93.79
2022-10-13T05:26:07.226Z,93.79
2022-10-13T05:27:07.012Z,93.69
2022-10-13T05:28:07.312Z,93.59
2022-10-13T05:29:07.098Z,93.59
2022-10-13T05:30:06.917Z,93.59
2022-10-13T05:31:07.217Z,93.48
2022-10-13T05:32:06.929Z,93.38
2022-10-13T05:33:07.177Z,93.28
2022-10-13T05:34:27.009Z,93.38
2022-10-13T05:35:06.858Z,93.38
2022-10-13T05:36:07.194Z,93.28
2022-10-13T05:37:06.881Z,93.07
2022-10-13T05:38:10.069Z,93.12
2022-10-13T05:39:06.874Z,93.38
2022-10-13T05:40:07.113Z,93.28
2022-10-13T05:41:06.882Z,93.18
2022-10-13T05:42:06.635Z,93.18
2022-10-13T05:43:06.896Z,93.28
2022-10-13T05:44:28.130Z,93.38
2022-10-13T05:45:06.153Z,93.28
2022-10-13T05:46:06.898Z,93.18
2022-10-13T05:47:07.761Z,93.38
2022-10-13T05:48:06.904Z,93.38
2022-10-13T05:49:06.647Z,93.38
2022-10-13T05:50:07.856Z,93.38
2022-10-13T05:51:06.663Z,93.07
2022-10-13T05:52:06.976Z,93.18
2022-10-13T05:53:06.714Z,93.18
2022-10-13T05:54:26.977Z,93.48
2022-10-13T05:55:07.594Z,93.69
2022-10-13T05:56:06.995Z,93.79
2022-10-13T05:57:06.761Z,93.79
2022-10-13T05:58:06.558Z,93.79
2022-10-13T05:59:06.766Z,93.69
2022-10-13T06:00:06.545Z,93.69
2022-10-13T06:01:07.568Z,93.59
2022-10-13T06:02:06.648Z,93.69
2022-10-13T06:03:06.903Z,93.69
2022-10-13T06:04:26.657Z,93.69
2022-10-13T06:05:06.430Z,93.59
2022-10-13T06:06:06.681Z,93.48
2022-10-13T06:07:06.413Z,93.59
2022-10-13T06:08:06.691Z,93.69
2022-10-13T06:09:06.413Z,93.59
2022-10-13T06:10:06.672Z,93.59
2022-10-13T06:11:06.447Z,93.48
2022-10-13T06:12:06.695Z,93.48
2022-10-13T06:13:06.443Z,93.59
2022-10-13T06:14:26.708Z,93.79
2022-10-13T06:15:06.457Z,93.79
2022-10-13T06:16:06.702Z,93.69
2022-10-13T06:17:06.464Z,93.69
2022-10-13T06:18:06.708Z,93.69
2022-10-13T06:19:06.478Z,93.69
2022-10-13T06:20:06.707Z,93.79
2022-10-13T06:21:06.467Z,93.79
2022-10-13T06:22:06.713Z,93.79
2022-10-13T06:23:06.471Z,93.89
2022-10-13T06:24:26.774Z,93.89
2022-10-13T06:25:06.520Z,93.89
2022-10-13T06:26:06.277Z,93.89
2022-10-13T06:27:06.615Z,93.89
2022-10-13T06:28:06.273Z,93.89
2022-10-13T06:29:08.080Z,93.89
2022-10-13T06:30:07.806Z,93.99
2022-10-13T06:31:07.315Z,93.99
2022-10-13T06:32:06.622Z,93.89
2022-10-13T06:33:07.728Z,93.79
2022-10-13T06:34:26.549Z,93.79
2022-10-13T06:35:07.788Z,93.64
2022-10-13T06:36:06.424Z,93.74
2022-10-13T06:37:06.667Z,93.64
2022-10-13T06:38:07.074Z,93.44
2022-10-13T06:39:07.589Z,93.44
2022-10-13T06:40:07.361Z,93.33
2022-10-13T06:41:07.735Z,93.44
2022-10-13T06:42:06.696Z,93.33
2022-10-13T06:43:07.838Z,93.13
2022-10-13T06:44:26.152Z,92.93
2022-10-13T06:45:07.867Z,92.93
2022-10-13T06:46:06.709Z,93.03
2022-10-13T06:47:07.549Z,92.93
2022-10-13T06:48:07.837Z,92.83
2022-10-13T06:49:07.634Z,92.72
2022-10-13T06:50:07.091Z,92.72
2022-10-13T06:51:07.791Z,92.63
2022-10-13T06:52:06.766Z,92.58
2022-10-13T06:53:07.406Z,92.48
2022-10-13T06:54:26.239Z,92.27
2022-10-13T06:55:07.509Z,92.27
2022-10-13T06:56:06.590Z,92.27
2022-10-13T06:57:06.795Z,92.18
2022-10-13T06:58:07.416Z,92.18
2022-10-13T06:59:07.759Z,92.18
2022-10-13T07:00:07.550Z,92.07
2022-10-13T07:01:07.394Z,92.18
2022-10-13T07:02:06.605Z,92.18
2022-10-13T07:03:07.475Z,92.18
2022-10-13T07:04:26.347Z,92.18
2022-10-13T07:05:06.352Z,92.18
2022-10-13T07:06:07.612Z,92.27
2022-10-13T07:07:06.588Z,92.18
2022-10-13T07:08:06.603Z,92.18
2022-10-13T07:09:07.583Z,92.07
2022-10-13T07:10:07.397Z,91.97
2022-10-13T07:11:11.646Z,91.97
2022-10-13T07:12:07.647Z,91.97
2022-10-13T07:13:06.586Z,91.87
2022-10-13T07:14:26.188Z,92.27
2022-10-13T07:15:07.414Z,92.27
2022-10-13T07:16:07.232Z,92.18
2022-10-13T07:17:06.662Z,92.07
2022-10-13T07:18:07.328Z,92.07
2022-10-13T07:19:06.653Z,92.07
2022-10-13T07:20:07.642Z,92.07
2022-10-13T07:21:07.280Z,91.97
2022-10-13T07:22:06.688Z,91.97
2022-10-13T07:23:06.952Z,92.07
2022-10-13T07:24:25.751Z,92.18
2022-10-13T07:25:07.501Z,92.07
2022-10-13T07:26:06.815Z,91.77
2022-10-13T07:27:07.923Z,91.72
2022-10-13T07:28:07.465Z,91.62
2022-10-13T07:29:07.267Z,91.62
2022-10-13T07:30:06.529Z,91.62
2022-10-13T07:31:07.347Z,91.62
2022-10-13T07:32:06.681Z,91.62
2022-10-13T07:33:07.494Z,91.52
2022-10-13T07:34:25.818Z,91.52
2022-10-13T07:35:07.062Z,91.31
2022-10-13T07:36:06.026Z,91.38
2022-10-13T07:37:05.774Z,91.17
2022-10-13T07:38:06.986Z,90.97
2022-10-13T07:39:05.788Z,90.77
2022-10-13T07:40:05.542Z,90.46
2022-10-13T07:41:05.790Z,90.46
2022-10-13T07:42:05.570Z,90.25
2022-10-13T07:43:05.799Z,90.31
2022-10-13T07:44:27.060Z,89.61
2022-10-13T07:45:05.857Z,89.70
2022-10-13T07:46:05.616Z,89.56
2022-10-13T07:47:04.852Z,89.15
2022-10-13T07:48:04.872Z,89.05
2022-10-13T07:49:05.605Z,89.05
2022-10-13T07:50:05.347Z,88.75
2022-10-13T07:51:05.599Z,88.54
2022-10-13T07:52:05.351Z,88.54
2022-10-13T07:53:05.648Z,88.81
2022-10-13T07:54:27.595Z,88.71
2022-10-13T07:55:04.759Z,88.50
2022-10-13T07:56:05.507Z,88.40
2022-10-13T07:57:05.254Z,88.40
2022-10-13T07:58:05.495Z,88.04
2022-10-13T07:59:05.770Z,88.24
2022-10-13T08:00:05.503Z,88.54
2022-10-13T08:01:05.244Z,88.65
2022-10-13T08:02:05.489Z,88.65
2022-10-13T08:03:05.240Z,88.85
2022-10-13T08:04:27.051Z,88.34
2022-10-13T08:05:05.324Z,88.04
2022-10-13T08:06:05.560Z,88.13
2022-10-13T08:07:05.803Z,88.13
2022-10-13T08:08:05.691Z,88.04
2022-10-13T08:09:06.841Z,88.44
2022-10-13T08:10:06.623Z,88.34
2022-10-13T08:11:05.498Z,88.44
2022-10-13T08:12:05.731Z,88.30
2022-10-13T08:13:06.196Z,88.50
2022-10-13T08:14:25.372Z,88.30
2022-10-13T08:15:06.983Z,88.20
2022-10-13T08:16:05.326Z,87.99
2022-10-13T08:17:05.707Z,87.89
2022-10-13T08:18:05.351Z,87.75
2022-10-13T08:19:06.531Z,87.65
2022-10-13T08:20:06.849Z,87.65
2022-10-13T08:22:09.589Z,87.00
2022-10-13T08:23:05.406Z,86.90
2022-10-13T08:24:25.102Z,86.25
2022-10-13T08:25:06.778Z,85.94
2022-10-13T08:26:06.557Z,85.19
2022-10-13T08:27:05.832Z,84.38
2022-10-13T08:28:04.642Z,84.38
2022-10-13T08:29:22.853Z,84.58
2022-10-13T08:30:06.946Z,84.48
2022-10-13T08:31:04.511Z,83.87
2022-10-13T08:32:04.396Z,83.73
2022-10-13T08:33:05.830Z,83.18
2022-10-13T08:34:24.458Z,82.44
2022-10-13T08:35:04.474Z,82.14
2022-10-13T08:36:04.351Z,82.24
2022-10-13T08:37:05.297Z,82.44
2022-10-13T08:38:04.339Z,82.17
2022-10-13T08:39:04.373Z,82.28
2022-10-13T08:40:04.650Z,82.38
2022-10-13T08:41:06.555Z,82.92
2022-10-13T08:42:05.668Z,83.33
2022-10-13T08:43:04.352Z,83.83
2022-10-13T08:45:10.779Z,84.08
2022-10-13T08:45:35.817Z,84.18
2022-10-13T08:46:07.526Z,84.58
2022-10-13T08:47:04.942Z,84.69
2022-10-13T08:48:06.555Z,84.48
2022-10-13T08:49:05.074Z,84.32
2022-10-13T08:50:06.066Z,84.52
2022-10-13T08:51:05.586Z,84.52
2022-10-13T08:52:05.728Z,85.24
2022-10-13T08:53:06.398Z,85.44
2022-10-13T08:54:24.729Z,85.53
2022-10-13T08:55:05.086Z,85.53
2022-10-13T08:56:06.176Z,85.44
2022-10-13T08:57:05.044Z,85.44
2022-10-13T08:58:06.220Z,85.74
2022-10-13T08:59:05.991Z,85.33
2022-10-13T09:00:05.747Z,85.58
2022-10-13T09:01:06.520Z,85.68
2022-10-13T09:02:05.619Z,85.78
2022-10-13T09:03:04.669Z,85.68
2022-10-13T09:04:24.879Z,86.08
2022-10-13T09:05:04.718Z,85.98
2022-10-13T09:06:05.856Z,85.88
2022-10-13T09:07:05.830Z,85.98
2022-10-13T09:08:05.656Z,85.88
2022-10-13T09:09:06.188Z,86.08
2022-10-13T09:10:06.430Z,86.08
2022-10-13T09:11:04.779Z,86.49
2022-10-13T09:12:04.535Z,86.39
2022-10-13T09:13:05.464Z,85.84
2022-10-13T09:14:25.056Z,85.38
2022-10-13T09:15:06.225Z,85.47
2022-10-13T09:16:05.470Z,85.74
2022-10-13T09:17:05.699Z,85.58
2022-10-13T09:18:05.993Z,85.64
2022-10-13T09:19:04.816Z,85.84
2022-10-13T09:20:05.171Z,85.84
2022-10-13T09:21:06.266Z,85.94
2022-10-13T09:22:05.657Z,85.94
2022-10-13T09:23:04.385Z,85.64
2022-10-13T09:24:24.644Z,85.53
2022-10-13T09:25:04.411Z,85.44
2022-10-13T09:26:04.705Z,84.93
2022-10-13T09:27:05.693Z,84.93
2022-10-13T09:28:04.936Z,85.24
2022-10-13T09:29:04.503Z,85.33
2022-10-13T09:30:06.148Z,85.39
2022-10-13T09:31:04.520Z,85.24
2022-10-13T09:32:05.199Z,84.99
2022-10-13T09:33:04.571Z,85.09
2022-10-13T09:34:24.772Z,85.30
2022-10-13T09:35:05.967Z,85.30
2022-10-13T09:36:05.791Z,84.89
2022-10-13T09:37:05.768Z,85.09
2022-10-13T09:38:05.268Z,84.28
2022-10-13T09:39:04.959Z,84.38
2022-10-13T09:40:06.009Z,83.87
2022-10-13T09:41:05.859Z,83.63
2022-10-13T09:42:05.792Z,83.53
2022-10-13T09:43:04.548Z,83.53
2022-10-13T09:44:26.997Z,83.43
2022-10-13T09:45:05.513Z,83.53
2022-10-13T09:46:05.356Z,83.23
2022-10-13T09:47:05.641Z,83.29
2022-10-13T09:48:05.982Z,83.39
2022-10-13T09:49:05.763Z,82.89
2022-10-13T09:50:07.498Z,82.78
2022-10-13T09:51:05.851Z,83.18
2022-10-13T09:52:05.147Z,83.09
2022-10-13T09:53:05.984Z,82.98
2022-10-13T09:54:24.310Z,82.78
2022-10-13T09:55:05.228Z,82.78
2022-10-13T09:56:05.844Z,83.09
2022-10-13T09:57:05.630Z,82.75
2022-10-13T09:58:05.930Z,82.75
2022-10-13T09:59:04.341Z,82.54
2022-10-13T10:00:05.543Z,82.50
2022-10-13T10:01:04.699Z,82.60
2022-10-13T10:02:05.670Z,82.50
2022-10-13T10:03:05.487Z,81.29
2022-10-13T10:04:24.398Z,82.10
2022-10-13T10:05:05.516Z,81.83
2022-10-13T10:06:04.480Z,82.14
2022-10-13T10:07:04.713Z,82.14
2022-10-13T10:08:05.405Z,82.54
2022-10-13T10:09:05.023Z,82.84
2022-10-13T10:10:05.016Z,83.15
2022-10-13T10:11:05.297Z,83.35
2022-10-13T10:12:05.621Z,82.95
2022-10-13T10:13:03.981Z,82.68
2022-10-13T10:14:24.233Z,83.39
2022-10-13T10:15:04.947Z,83.59
2022-10-13T10:16:05.224Z,83.80
2022-10-13T10:17:05.509Z,83.69
2022-10-13T10:18:04.439Z,84.10
2022-10-13T10:19:04.213Z,84.10
2022-10-13T10:20:05.478Z,84.30
2022-10-13T10:21:04.485Z,84.20
2022-10-13T10:22:05.545Z,84.30
2022-10-13T10:23:05.316Z,83.94
2022-10-13T10:24:24.135Z,83.94
2022-10-13T10:25:03.913Z,84.34
2022-10-13T10:26:05.634Z,84.75
2022-10-13T10:27:05.011Z,84.95
2022-10-13T10:28:05.258Z,84.85
2022-10-13T10:29:05.551Z,84.95
2022-10-13T10:30:03.943Z,85.05
2022-10-13T10:31:05.114Z,84.81
2022-10-13T10:32:03.980Z,85.01
2022-10-13T10:33:05.225Z,85.01
2022-10-13T10:34:24.049Z,84.70
2022-10-13T10:35:05.317Z,85.01
2022-10-13T10:36:04.723Z,85.42
2022-10-13T10:37:05.395Z,85.52
2022-10-13T10:38:03.798Z,85.52
2022-10-13T10:39:03.987Z,85.62
2022-10-13T10:40:05.284Z,85.72
2022-10-13T10:41:03.582Z,85.62
2022-10-13T10:42:03.838Z,85.52
2022-10-13T10:43:03.556Z,85.72
2022-10-13T10:44:25.372Z,85.62
2022-10-13T10:45:03.636Z,85.82
2022-10-13T10:46:03.903Z,85.96
2022-10-13T10:47:04.262Z,84.95
2022-10-13T10:48:03.938Z,85.15
2022-10-13T10:49:03.672Z,85.46
2022-10-13T10:50:03.922Z,85.76
2022-10-13T10:51:03.669Z,85.96
2022-10-13T10:52:03.915Z,85.66
2022-10-13T10:53:03.744Z,85.56
2022-10-13T10:54:24.250Z,85.66
2022-10-13T10:55:03.668Z,85.96
2022-10-13T10:56:03.419Z,86.27
2022-10-13T10:57:03.668Z,86.37
2022-10-13T10:58:03.433Z,86.47
2022-10-13T10:59:03.670Z,86.57
2022-10-13T11:00:03.444Z,86.88
2022-10-13T11:01:03.668Z,87.18
2022-10-13T11:02:03.451Z,87.08
2022-10-13T11:03:03.673Z,87.18
2022-10-13T11:04:24.940Z,87.18
2022-10-13T11:05:06.311Z,87.18
2022-10-13T11:06:03.511Z,87.28
2022-10-13T11:07:03.784Z,87.38
2022-10-13T11:08:03.529Z,87.28
2022-10-13T11:09:03.272Z,87.48
2022-10-13T11:10:03.502Z,87.59
2022-10-13T11:11:03.754Z,87.48
2022-10-13T11:12:03.504Z,87.59
2022-10-13T11:13:03.237Z,87.79
2022-10-13T11:14:25.015Z,87.69
2022-10-13T11:15:04.332Z,87.69
2022-10-13T11:16:03.684Z,87.79
2022-10-13T11:17:04.242Z,87.69
2022-10-13T11:18:04.646Z,87.59
2022-10-13T11:19:04.159Z,87.79
2022-10-13T11:20:03.354Z,87.59
2022-10-13T11:21:04.968Z,87.69
2022-10-13T11:22:04.737Z,87.99
2022-10-13T11:23:04.578Z,87.48
2022-10-13T11:24:23.383Z,87.93
2022-10-13T11:25:04.594Z,88.23
2022-10-13T11:26:04.899Z,88.54
2022-10-13T11:27:04.669Z,88.80
2022-10-13T11:28:04.205Z,88.80
2022-10-13T11:29:04.276Z,88.70
2022-10-13T11:30:04.568Z,88.80
2022-10-13T11:31:04.871Z,88.40
2022-10-13T11:32:03.271Z,88.60
2022-10-13T11:33:03.637Z,89.01
2022-10-13T11:34:23.278Z,88.90
2022-10-13T11:35:03.293Z,88.70
2022-10-13T11:36:04.823Z,88.60
2022-10-13T11:37:03.342Z,88.90
2022-10-13T11:38:07.613Z,88.70
2022-10-13T11:39:04.263Z,88.60
2022-10-13T11:40:03.321Z,88.80
2022-10-13T11:41:04.304Z,88.70
2022-10-13T11:42:04.100Z,88.49
2022-10-13T11:43:05.279Z,88.80
2022-10-13T11:44:23.250Z,89.01
2022-10-13T11:45:03.771Z,89.21
2022-10-13T11:46:03.269Z,89.41
2022-10-13T11:47:03.027Z,89.61
2022-10-13T11:48:03.289Z,89.51
2022-10-13T11:49:03.002Z,89.72
2022-10-13T11:50:03.268Z,89.92
2022-10-13T11:51:03.035Z,89.81
2022-10-13T11:52:03.446Z,89.81
2022-10-13T11:53:03.039Z,89.72
2022-10-13T11:54:23.297Z,89.81
2022-10-13T11:55:03.031Z,89.21
2022-10-13T11:56:02.794Z,89.11
2022-10-13T11:57:03.486Z,89.21
2022-10-13T11:58:02.266Z,89.41
2022-10-13T11:59:03.012Z,89.31
2022-10-13T12:00:02.796Z,89.21
2022-10-13T12:01:02.225Z,89.47
2022-10-13T12:02:02.984Z,89.61
2022-10-13T12:03:03.257Z,89.67
2022-10-13T12:04:22.994Z,89.81
2022-10-13T12:05:02.728Z,89.72
2022-10-13T12:06:02.956Z,89.92
2022-10-13T12:07:02.786Z,90.02
2022-10-13T12:08:02.969Z,90.22
2022-10-13T12:09:02.730Z,90.22
2022-10-13T12:10:02.961Z,90.32
2022-10-13T12:11:02.700Z,90.32
2022-10-13T12:12:02.966Z,90.42
2022-10-13T12:13:02.697Z,90.42
2022-10-13T12:14:22.961Z,90.32
2022-10-13T12:15:06.073Z,90.32
2022-10-13T12:16:02.942Z,90.12
2022-10-13T12:17:02.723Z,90.02
2022-10-13T12:18:02.996Z,89.81
2022-10-13T12:19:02.753Z,89.92
2022-10-13T12:20:02.991Z,90.22
2022-10-13T12:21:02.760Z,90.32
2022-10-13T12:22:03.012Z,89.98
2022-10-13T12:23:02.765Z,89.77
2022-10-13T12:24:23.017Z,90.08
2022-10-13T12:25:02.745Z,90.18
2022-10-13T12:26:02.984Z,90.38
2022-10-13T12:27:02.746Z,90.38
2022-10-13T12:28:02.486Z,90.48
2022-10-13T12:29:02.756Z,90.38
2022-10-13T12:30:02.495Z,89.87
2022-10-13T12:31:02.747Z,89.98
2022-10-13T12:32:02.507Z,90.18
2022-10-13T12:33:02.763Z,90.08
2022-10-13T12:34:23.477Z,90.08
2022-10-13T12:35:02.759Z,89.94
2022-10-13T12:36:02.511Z,90.03
2022-10-13T12:37:02.810Z,89.83
2022-10-13T12:38:02.522Z,89.94
2022-10-13T12:39:02.757Z,90.03
2022-10-13T12:40:02.538Z,90.14
2022-10-13T12:41:02.794Z,89.94
2022-10-13T12:42:02.546Z,90.03
2022-10-13T12:43:02.284Z,90.44
2022-10-13T12:44:23.311Z,90.14
2022-10-13T12:45:02.333Z,89.94
2022-10-13T12:46:02.553Z,90.14
2022-10-13T12:47:02.290Z,90.14
2022-10-13T12:48:02.544Z,90.14
2022-10-13T12:49:02.273Z,90.44
2022-10-13T12:50:02.541Z,90.64
2022-10-13T12:51:02.281Z,90.75
2022-10-13T12:52:02.553Z,91.05
2022-10-13T12:53:02.324Z,90.84